sensor_id;sensor_type;location;lat;lon;timestamp;P1;durP1;ratioP1;P2;durP2;ratioP2
11921;SDS011;6021;51.182;3.160;2023-04-03T00:01:10;8.33;;;7.30;;
11921;SDS011;6021;51.182;3.160;2023-04-03T00:03:52;8.13;;;7.33;;
11921;SDS011;6021;51.182;3.160;2023-04-03T00:06:28;8.23;;;7.30;;
11921;SDS011;6021;51.182;3.160;2023-04-03T00:09:03;7.47;;;6.77;;
11921;SDS011;6021;51.182;3.160;2023-04-03T00:11:45;6.90;;;6.20;;
11921;SDS011;6021;51.182;3.160;2023-04-03T00:17:08;8.07;;;7.27;;
11921;SDS011;6021;51.182;3.160;2023-04-03T00:19:51;7.60;;;6.90;;
11921;SDS011;6021;51.182;3.160;2023-04-03T00:22:20;7.00;;;6.30;;
11921;SDS011;6021;51.182;3.160;2023-04-03T00:24:50;6.80;;;6.20;;
11921;SDS011;6021;51.182;3.160;2023-04-03T00:27:28;7.00;;;6.30;;
11921;SDS011;6021;51.182;3.160;2023-04-03T00:30:16;7.17;;;6.47;;
11921;SDS011;6021;51.182;3.160;2023-04-03T00:32:51;7.30;;;6.60;;
11921;SDS011;6021;51.182;3.160;2023-04-03T00:35:30;7.37;;;6.43;;
11921;SDS011;6021;51.182;3.160;2023-04-03T00:38:07;7.50;;;6.90;;
11921;SDS011;6021;51.182;3.160;2023-04-03T00:40:38;7.03;;;6.33;;
11921;SDS011;6021;51.182;3.160;2023-04-03T00:45:47;8.10;;;7.40;;
11921;SDS011;6021;51.182;3.160;2023-04-03T00:51:07;7.90;;;7.23;;
11921;SDS011;6021;51.182;3.160;2023-04-03T00:53:44;8.10;;;7.37;;
11921;SDS011;6021;51.182;3.160;2023-04-03T00:56:21;8.43;;;7.20;;
11921;SDS011;6021;51.182;3.160;2023-04-03T01:01:44;8.30;;;7.50;;
11921;SDS011;6021;51.182;3.160;2023-04-03T01:04:28;10.03;;;9.03;;
11921;SDS011;6021;51.182;3.160;2023-04-03T01:07:22;8.80;;;8.00;;
11921;SDS011;6021;51.182;3.160;2023-04-03T01:09:56;8.90;;;8.00;;
11921;SDS011;6021;51.182;3.160;2023-04-03T01:12:36;8.57;;;7.70;;
11921;SDS011;6021;51.182;3.160;2023-04-03T01:15:22;9.83;;;8.83;;
11921;SDS011;6021;51.182;3.160;2023-04-03T01:17:57;9.63;;;8.73;;
11921;SDS011;6021;51.182;3.160;2023-04-03T01:26:03;9.40;;;8.60;;
11921;SDS011;6021;51.182;3.160;2023-04-03T01:28:36;9.30;;;8.50;;
11921;SDS011;6021;51.182;3.160;2023-04-03T01:34:06;9.60;;;8.70;;
11921;SDS011;6021;51.182;3.160;2023-04-03T01:36:59;8.90;;;8.10;;
11921;SDS011;6021;51.182;3.160;2023-04-03T01:39:49;8.97;;;8.17;;
11921;SDS011;6021;51.182;3.160;2023-04-03T01:42:25;9.20;;;8.30;;
11921;SDS011;6021;51.182;3.160;2023-04-03T01:44:59;11.93;;;9.60;;
11921;SDS011;6021;51.182;3.160;2023-04-03T01:47:34;10.07;;;9.23;;
11921;SDS011;6021;51.182;3.160;2023-04-03T01:50:21;9.60;;;8.80;;
11921;SDS011;6021;51.182;3.160;2023-04-03T01:53:00;9.93;;;9.03;;
11921;SDS011;6021;51.182;3.160;2023-04-03T01:55:26;9.87;;;8.87;;
11921;SDS011;6021;51.182;3.160;2023-04-03T01:57:56;10.03;;;9.23;;
11921;SDS011;6021;51.182;3.160;2023-04-03T02:00:29;10.13;;;9.23;;
11921;SDS011;6021;51.182;3.160;2023-04-03T02:03:02;9.87;;;8.97;;
11921;SDS011;6021;51.182;3.160;2023-04-03T02:05:34;10.67;;;9.67;;
11921;SDS011;6021;51.182;3.160;2023-04-03T02:08:26;10.53;;;9.53;;
11921;SDS011;6021;51.182;3.160;2023-04-03T02:10:46;11.47;;;10.37;;
11921;SDS011;6021;51.182;3.160;2023-04-03T02:13:22;10.87;;;9.87;;
11921;SDS011;6021;51.182;3.160;2023-04-03T02:15:52;10.43;;;9.43;;
11921;SDS011;6021;51.182;3.160;2023-04-03T02:20:57;10.03;;;9.13;;
11921;SDS011;6021;51.182;3.160;2023-04-03T02:23:30;11.27;;;10.17;;
11921;SDS011;6021;51.182;3.160;2023-04-03T02:26:13;10.97;;;9.63;;
11921;SDS011;6021;51.182;3.160;2023-04-03T02:28:43;10.37;;;9.40;;
11921;SDS011;6021;51.182;3.160;2023-04-03T02:31:16;10.73;;;9.67;;
11921;SDS011;6021;51.182;3.160;2023-04-03T02:33:44;10.17;;;9.23;;
11921;SDS011;6021;51.182;3.160;2023-04-03T02:36:20;9.80;;;8.90;;
11921;SDS011;6021;51.182;3.160;2023-04-03T02:39:10;10.27;;;9.37;;
11921;SDS011;6021;51.182;3.160;2023-04-03T02:41:34;10.07;;;9.07;;
11921;SDS011;6021;51.182;3.160;2023-04-03T02:44:02;9.60;;;8.80;;
11921;SDS011;6021;51.182;3.160;2023-04-03T02:46:37;10.57;;;9.53;;
11921;SDS011;6021;51.182;3.160;2023-04-03T02:49:21;10.73;;;9.83;;
11921;SDS011;6021;51.182;3.160;2023-04-03T02:51:53;10.63;;;9.53;;
11921;SDS011;6021;51.182;3.160;2023-04-03T02:54:23;10.93;;;9.93;;
11921;SDS011;6021;51.182;3.160;2023-04-03T02:56:58;9.60;;;8.67;;
11921;SDS011;6021;51.182;3.160;2023-04-03T02:59:30;11.50;;;10.40;;
11921;SDS011;6021;51.182;3.160;2023-04-03T03:01:59;10.23;;;9.33;;
11921;SDS011;6021;51.182;3.160;2023-04-03T03:04:45;10.80;;;9.70;;
11921;SDS011;6021;51.182;3.160;2023-04-03T03:07:24;9.57;;;8.73;;
11921;SDS011;6021;51.182;3.160;2023-04-03T03:10:10;10.97;;;9.93;;
11921;SDS011;6021;51.182;3.160;2023-04-03T03:12:46;10.70;;;9.60;;
11921;SDS011;6021;51.182;3.160;2023-04-03T03:15:26;10.23;;;9.33;;
11921;SDS011;6021;51.182;3.160;2023-04-03T03:17:56;10.90;;;9.80;;
11921;SDS011;6021;51.182;3.160;2023-04-03T03:20:32;10.80;;;9.70;;
11921;SDS011;6021;51.182;3.160;2023-04-03T03:23:02;10.20;;;9.30;;
11921;SDS011;6021;51.182;3.160;2023-04-03T03:25:42;9.43;;;8.53;;
11921;SDS011;6021;51.182;3.160;2023-04-03T03:28:16;9.93;;;9.10;;
11921;SDS011;6021;51.182;3.160;2023-04-03T03:30:58;9.70;;;8.90;;
11921;SDS011;6021;51.182;3.160;2023-04-03T03:36:06;9.50;;;8.70;;
11921;SDS011;6021;51.182;3.160;2023-04-03T03:38:50;9.10;;;8.30;;
11921;SDS011;6021;51.182;3.160;2023-04-03T03:41:08;9.80;;;8.90;;
11921;SDS011;6021;51.182;3.160;2023-04-03T03:43:37;11.20;;;10.10;;
11921;SDS011;6021;51.182;3.160;2023-04-03T03:46:05;10.23;;;9.23;;
11921;SDS011;6021;51.182;3.160;2023-04-03T03:49:00;9.53;;;8.63;;
11921;SDS011;6021;51.182;3.160;2023-04-03T03:51:55;9.03;;;8.23;;
11921;SDS011;6021;51.182;3.160;2023-04-03T03:53:59;9.30;;;8.40;;
11921;SDS011;6021;51.182;3.160;2023-04-03T03:56:43;9.27;;;8.40;;
11921;SDS011;6021;51.182;3.160;2023-04-03T03:59:22;10.47;;;9.00;;
11921;SDS011;6021;51.182;3.160;2023-04-03T04:01:52;8.90;;;8.20;;
11921;SDS011;6021;51.182;3.160;2023-04-03T04:04:24;9.17;;;8.33;;
11921;SDS011;6021;51.182;3.160;2023-04-03T04:07:04;8.30;;;7.50;;
11921;SDS011;6021;51.182;3.160;2023-04-03T04:09:41;8.50;;;7.67;;
11921;SDS011;6021;51.182;3.160;2023-04-03T04:12:21;9.20;;;8.30;;
11921;SDS011;6021;51.182;3.160;2023-04-03T04:15:03;11.00;;;9.90;;
11921;SDS011;6021;51.182;3.160;2023-04-03T04:17:38;9.40;;;8.60;;
11921;SDS011;6021;51.182;3.160;2023-04-03T04:20:07;9.17;;;8.37;;
11921;SDS011;6021;51.182;3.160;2023-04-03T04:22:45;9.37;;;8.57;;
11921;SDS011;6021;51.182;3.160;2023-04-03T04:25:23;9.47;;;8.57;;
11921;SDS011;6021;51.182;3.160;2023-04-03T04:28:00;9.53;;;8.73;;
11921;SDS011;6021;51.182;3.160;2023-04-03T04:30:39;9.33;;;8.50;;
11921;SDS011;6021;51.182;3.160;2023-04-03T04:33:09;8.93;;;8.13;;
11921;SDS011;6021;51.182;3.160;2023-04-03T04:35:42;10.00;;;9.10;;
11921;SDS011;6021;51.182;3.160;2023-04-03T04:38:15;9.43;;;8.63;;
11921;SDS011;6021;51.182;3.160;2023-04-03T04:40:46;9.07;;;8.27;;
11921;SDS011;6021;51.182;3.160;2023-04-03T04:43:19;9.83;;;8.93;;
11921;SDS011;6021;51.182;3.160;2023-04-03T04:48:39;11.00;;;9.90;;
11921;SDS011;6021;51.182;3.160;2023-04-03T04:51:13;9.23;;;8.37;;
11921;SDS011;6021;51.182;3.160;2023-04-03T04:53:44;8.73;;;8.03;;
11921;SDS011;6021;51.182;3.160;2023-04-03T04:56:13;8.77;;;7.90;;
11921;SDS011;6021;51.182;3.160;2023-04-03T04:58:41;9.40;;;8.60;;
11921;SDS011;6021;51.182;3.160;2023-04-03T05:01:12;8.47;;;7.77;;
11921;SDS011;6021;51.182;3.160;2023-04-03T05:03:58;8.07;;;7.30;;
11921;SDS011;6021;51.182;3.160;2023-04-03T05:06:39;7.73;;;7.17;;
11921;SDS011;6021;51.182;3.160;2023-04-03T05:09:23;8.10;;;7.30;;
11921;SDS011;6021;51.182;3.160;2023-04-03T05:12:05;8.40;;;7.60;;
11921;SDS011;6021;51.182;3.160;2023-04-03T05:15:03;8.90;;;8.10;;
11921;SDS011;6021;51.182;3.160;2023-04-03T05:17:26;9.90;;;8.93;;
11921;SDS011;6021;51.182;3.160;2023-04-03T05:20:04;9.73;;;8.87;;
11921;SDS011;6021;51.182;3.160;2023-04-03T05:22:41;9.97;;;9.07;;
11921;SDS011;6021;51.182;3.160;2023-04-03T05:25:25;8.50;;;7.80;;
11921;SDS011;6021;51.182;3.160;2023-04-03T05:27:44;9.10;;;8.20;;
11921;SDS011;6021;51.182;3.160;2023-04-03T05:33:10;9.80;;;8.83;;
11921;SDS011;6021;51.182;3.160;2023-04-03T05:35:46;9.03;;;8.23;;
11921;SDS011;6021;51.182;3.160;2023-04-03T05:38:15;9.63;;;8.63;;
11921;SDS011;6021;51.182;3.160;2023-04-03T05:40:43;8.97;;;8.27;;
11921;SDS011;6021;51.182;3.160;2023-04-03T05:43:12;9.93;;;9.03;;
11921;SDS011;6021;51.182;3.160;2023-04-03T05:45:40;8.73;;;8.03;;
11921;SDS011;6021;51.182;3.160;2023-04-03T05:48:09;9.17;;;8.33;;
11921;SDS011;6021;51.182;3.160;2023-04-03T05:50:39;10.37;;;9.37;;
11921;SDS011;6021;51.182;3.160;2023-04-03T05:53:19;10.03;;;9.13;;
11921;SDS011;6021;51.182;3.160;2023-04-03T05:55:51;9.33;;;8.53;;
11921;SDS011;6021;51.182;3.160;2023-04-03T05:58:20;10.10;;;9.20;;
11921;SDS011;6021;51.182;3.160;2023-04-03T06:00:49;9.50;;;8.70;;
11921;SDS011;6021;51.182;3.160;2023-04-03T06:03:18;9.57;;;8.77;;
11921;SDS011;6021;51.182;3.160;2023-04-03T06:05:47;9.80;;;9.00;;
11921;SDS011;6021;51.182;3.160;2023-04-03T06:08:15;10.47;;;9.43;;
11921;SDS011;6021;51.182;3.160;2023-04-03T06:10:43;9.83;;;8.97;;
11921;SDS011;6021;51.182;3.160;2023-04-03T06:13:13;9.97;;;9.07;;
11921;SDS011;6021;51.182;3.160;2023-04-03T06:15:41;11.23;;;10.10;;
11921;SDS011;6021;51.182;3.160;2023-04-03T06:18:10;9.87;;;8.97;;
11921;SDS011;6021;51.182;3.160;2023-04-03T06:20:38;11.20;;;10.10;;
11921;SDS011;6021;51.182;3.160;2023-04-03T06:23:07;9.70;;;8.77;;
11921;SDS011;6021;51.182;3.160;2023-04-03T06:25:36;9.00;;;8.17;;
11921;SDS011;6021;51.182;3.160;2023-04-03T06:28:04;8.80;;;8.00;;
11921;SDS011;6021;51.182;3.160;2023-04-03T06:30:34;10.03;;;9.10;;
11921;SDS011;6021;51.182;3.160;2023-04-03T06:33:03;10.80;;;9.80;;
11921;SDS011;6021;51.182;3.160;2023-04-03T06:35:31;9.43;;;8.63;;
11921;SDS011;6021;51.182;3.160;2023-04-03T06:38:01;9.90;;;8.97;;
11921;SDS011;6021;51.182;3.160;2023-04-03T06:40:31;11.40;;;10.40;;
11921;SDS011;6021;51.182;3.160;2023-04-03T06:42:59;12.13;;;10.97;;
11921;SDS011;6021;51.182;3.160;2023-04-03T06:45:28;12.30;;;11.20;;
11921;SDS011;6021;51.182;3.160;2023-04-03T06:47:57;11.97;;;10.87;;
11921;SDS011;6021;51.182;3.160;2023-04-03T06:50:25;12.77;;;11.57;;
11921;SDS011;6021;51.182;3.160;2023-04-03T06:55:30;12.57;;;11.37;;
11921;SDS011;6021;51.182;3.160;2023-04-03T06:58:00;12.43;;;11.23;;
11921;SDS011;6021;51.182;3.160;2023-04-03T07:00:35;11.93;;;10.60;;
11921;SDS011;6021;51.182;3.160;2023-04-03T07:03:04;12.97;;;11.67;;
11921;SDS011;6021;51.182;3.160;2023-04-03T07:05:34;11.50;;;10.40;;
11921;SDS011;6021;51.182;3.160;2023-04-03T07:08:03;11.50;;;10.40;;
11921;SDS011;6021;51.182;3.160;2023-04-03T07:10:32;12.27;;;11.07;;
11921;SDS011;6021;51.182;3.160;2023-04-03T07:13:00;11.87;;;10.67;;
11921;SDS011;6021;51.182;3.160;2023-04-03T07:15:28;10.10;;;9.20;;
11921;SDS011;6021;51.182;3.160;2023-04-03T07:17:57;10.50;;;9.60;;
11921;SDS011;6021;51.182;3.160;2023-04-03T07:20:25;10.73;;;9.60;;
11921;SDS011;6021;51.182;3.160;2023-04-03T07:22:54;9.97;;;9.07;;
11921;SDS011;6021;51.182;3.160;2023-04-03T07:25:22;9.23;;;8.33;;
11921;SDS011;6021;51.182;3.160;2023-04-03T07:27:51;8.60;;;7.70;;
11921;SDS011;6021;51.182;3.160;2023-04-03T07:30:20;8.93;;;7.10;;
11921;SDS011;6021;51.182;3.160;2023-04-03T07:32:49;7.93;;;6.57;;
11921;SDS011;6021;51.182;3.160;2023-04-03T07:35:17;7.90;;;7.20;;
11921;SDS011;6021;51.182;3.160;2023-04-03T07:37:46;8.60;;;6.83;;
11921;SDS011;6021;51.182;3.160;2023-04-03T07:40:14;7.57;;;6.57;;
11921;SDS011;6021;51.182;3.160;2023-04-03T07:42:43;6.90;;;6.03;;
11921;SDS011;6021;51.182;3.160;2023-04-03T07:45:11;6.10;;;5.50;;
11921;SDS011;6021;51.182;3.160;2023-04-03T07:47:40;7.07;;;6.13;;
11921;SDS011;6021;51.182;3.160;2023-04-03T07:50:08;6.53;;;5.93;;
11921;SDS011;6021;51.182;3.160;2023-04-03T07:52:37;6.73;;;5.87;;
11921;SDS011;6021;51.182;3.160;2023-04-03T07:55:05;7.00;;;6.33;;
11921;SDS011;6021;51.182;3.160;2023-04-03T07:57:34;9.70;;;6.60;;
11921;SDS011;6021;51.182;3.160;2023-04-03T08:00:03;6.80;;;5.80;;
11921;SDS011;6021;51.182;3.160;2023-04-03T08:02:32;6.57;;;5.30;;
11921;SDS011;6021;51.182;3.160;2023-04-03T08:05:00;5.70;;;5.10;;
11921;SDS011;6021;51.182;3.160;2023-04-03T08:07:29;5.40;;;4.90;;
11921;SDS011;6021;51.182;3.160;2023-04-03T08:09:57;5.10;;;4.37;;
11921;SDS011;6021;51.182;3.160;2023-04-03T08:12:25;5.27;;;4.30;;
11921;SDS011;6021;51.182;3.160;2023-04-03T08:14:55;4.60;;;4.10;;
11921;SDS011;6021;51.182;3.160;2023-04-03T08:17:28;5.80;;;4.27;;
11921;SDS011;6021;51.182;3.160;2023-04-03T08:20:00;4.67;;;4.20;;
11921;SDS011;6021;51.182;3.160;2023-04-03T08:22:34;5.07;;;4.17;;
11921;SDS011;6021;51.182;3.160;2023-04-03T08:25:11;5.30;;;4.27;;
11921;SDS011;6021;51.182;3.160;2023-04-03T08:28:02;5.27;;;4.70;;
11921;SDS011;6021;51.182;3.160;2023-04-03T08:30:25;5.53;;;4.70;;
11921;SDS011;6021;51.182;3.160;2023-04-03T08:32:56;4.90;;;4.23;;
11921;SDS011;6021;51.182;3.160;2023-04-03T08:35:40;4.83;;;4.20;;
11921;SDS011;6021;51.182;3.160;2023-04-03T08:38:09;5.47;;;4.90;;
11921;SDS011;6021;51.182;3.160;2023-04-03T08:40:42;7.27;;;5.30;;
11921;SDS011;6021;51.182;3.160;2023-04-03T08:46:04;5.60;;;4.93;;
11921;SDS011;6021;51.182;3.160;2023-04-03T08:48:39;6.07;;;4.87;;
11921;SDS011;6021;51.182;3.160;2023-04-03T08:51:23;8.40;;;4.50;;
11921;SDS011;6021;51.182;3.160;2023-04-03T08:56:37;5.53;;;5.00;;
11921;SDS011;6021;51.182;3.160;2023-04-03T08:59:19;5.63;;;4.67;;
11921;SDS011;6021;51.182;3.160;2023-04-03T09:01:41;7.57;;;4.97;;
11921;SDS011;6021;51.182;3.160;2023-04-03T09:04:20;5.73;;;5.17;;
11921;SDS011;6021;51.182;3.160;2023-04-03T09:06:58;6.10;;;4.70;;
11921;SDS011;6021;51.182;3.160;2023-04-03T09:09:42;6.30;;;5.40;;
11921;SDS011;6021;51.182;3.160;2023-04-03T09:15:02;8.27;;;5.60;;
11921;SDS011;6021;51.182;3.160;2023-04-03T09:20:31;6.93;;;5.20;;
11921;SDS011;6021;51.182;3.160;2023-04-03T09:23:04;7.20;;;5.63;;
11921;SDS011;6021;51.182;3.160;2023-04-03T09:25:37;5.83;;;5.23;;
11921;SDS011;6021;51.182;3.160;2023-04-03T09:28:15;5.97;;;5.07;;
11921;SDS011;6021;51.182;3.160;2023-04-03T09:30:49;5.43;;;4.90;;
11921;SDS011;6021;51.182;3.160;2023-04-03T09:33:29;7.37;;;5.33;;
11921;SDS011;6021;51.182;3.160;2023-04-03T09:36:09;5.63;;;5.07;;
11921;SDS011;6021;51.182;3.160;2023-04-03T09:38:37;5.57;;;4.97;;
11921;SDS011;6021;51.182;3.160;2023-04-03T09:41:17;5.47;;;4.90;;
11921;SDS011;6021;51.182;3.160;2023-04-03T09:43:54;4.93;;;4.23;;
11921;SDS011;6021;51.182;3.160;2023-04-03T09:46:33;5.20;;;4.70;;
11921;SDS011;6021;51.182;3.160;2023-04-03T09:49:08;6.10;;;4.30;;
11921;SDS011;6021;51.182;3.160;2023-04-03T09:51:46;4.07;;;3.50;;
11921;SDS011;6021;51.182;3.160;2023-04-03T09:54:30;5.63;;;3.00;;
11921;SDS011;6021;51.182;3.160;2023-04-03T09:57:04;3.73;;;2.90;;
11921;SDS011;6021;51.182;3.160;2023-04-03T09:59:46;3.73;;;3.00;;
11921;SDS011;6021;51.182;3.160;2023-04-03T10:02:37;4.13;;;2.80;;
11921;SDS011;6021;51.182;3.160;2023-04-03T10:10:49;3.17;;;2.50;;
11921;SDS011;6021;51.182;3.160;2023-04-03T10:13:20;3.63;;;2.87;;
11921;SDS011;6021;51.182;3.160;2023-04-03T10:27:04;2.87;;;2.10;;
11921;SDS011;6021;51.182;3.160;2023-04-03T10:29:59;4.50;;;2.40;;
11921;SDS011;6021;51.182;3.160;2023-04-03T10:38:19;3.63;;;1.93;;
11921;SDS011;6021;51.182;3.160;2023-04-03T10:41:07;2.67;;;2.03;;
11921;SDS011;6021;51.182;3.160;2023-04-03T10:54:38;4.13;;;2.50;;
11921;SDS011;6021;51.182;3.160;2023-04-03T11:00:06;3.43;;;2.20;;
11921;SDS011;6021;51.182;3.160;2023-04-03T11:02:41;3.83;;;2.30;;
11921;SDS011;6021;51.182;3.160;2023-04-03T11:05:26;2.60;;;2.10;;
11921;SDS011;6021;51.182;3.160;2023-04-03T11:08:19;3.83;;;2.37;;
11921;SDS011;6021;51.182;3.160;2023-04-03T11:11:19;3.30;;;2.50;;
11921;SDS011;6021;51.182;3.160;2023-04-03T11:13:55;4.73;;;2.40;;
11921;SDS011;6021;51.182;3.160;2023-04-03T11:16:40;3.10;;;2.40;;
11921;SDS011;6021;51.182;3.160;2023-04-03T11:22:30;3.03;;;2.40;;
11921;SDS011;6021;51.182;3.160;2023-04-03T11:39:20;3.40;;;2.20;;
11921;SDS011;6021;51.182;3.160;2023-04-03T11:41:52;2.40;;;2.20;;
11921;SDS011;6021;51.182;3.160;2023-04-03T11:47:11;3.73;;;2.33;;
11921;SDS011;6021;51.182;3.160;2023-04-03T12:01:06;3.13;;;2.00;;
11921;SDS011;6021;51.182;3.160;2023-04-03T12:08:52;3.50;;;2.20;;
11921;SDS011;6021;51.182;3.160;2023-04-03T12:11:30;3.07;;;2.10;;
11921;SDS011;6021;51.182;3.160;2023-04-03T12:16:55;4.13;;;2.47;;
11921;SDS011;6021;51.182;3.160;2023-04-03T12:19:36;3.73;;;2.00;;
11921;SDS011;6021;51.182;3.160;2023-04-03T12:22:16;3.00;;;2.33;;
11921;SDS011;6021;51.182;3.160;2023-04-03T12:24:51;2.47;;;2.13;;
11921;SDS011;6021;51.182;3.160;2023-04-03T12:30:21;3.20;;;2.00;;
11921;SDS011;6021;51.182;3.160;2023-04-03T12:41:16;3.73;;;1.70;;
11921;SDS011;6021;51.182;3.160;2023-04-03T12:47:23;2.40;;;1.83;;
11921;SDS011;6021;51.182;3.160;2023-04-03T12:49:59;2.23;;;1.80;;
11921;SDS011;6021;51.182;3.160;2023-04-03T12:55:19;2.17;;;1.80;;
11921;SDS011;6021;51.182;3.160;2023-04-03T12:58:12;3.53;;;1.80;;
11921;SDS011;6021;51.182;3.160;2023-04-03T13:00:44;2.50;;;2.00;;
11921;SDS011;6021;51.182;3.160;2023-04-03T13:03:21;3.00;;;1.70;;
11921;SDS011;6021;51.182;3.160;2023-04-03T13:06:01;2.27;;;1.77;;
11921;SDS011;6021;51.182;3.160;2023-04-03T13:11:46;2.77;;;1.90;;
11921;SDS011;6021;51.182;3.160;2023-04-03T13:14:20;2.47;;;1.90;;
11921;SDS011;6021;51.182;3.160;2023-04-03T13:19:27;2.87;;;1.83;;
11921;SDS011;6021;51.182;3.160;2023-04-03T13:22:01;2.73;;;1.93;;
11921;SDS011;6021;51.182;3.160;2023-04-03T13:24:39;2.07;;;1.60;;
11921;SDS011;6021;51.182;3.160;2023-04-03T13:27:19;2.60;;;1.60;;
11921;SDS011;6021;51.182;3.160;2023-04-03T13:29:54;2.60;;;1.60;;
11921;SDS011;6021;51.182;3.160;2023-04-03T13:32:24;2.47;;;1.90;;
11921;SDS011;6021;51.182;3.160;2023-04-03T13:34:57;2.23;;;1.50;;
11921;SDS011;6021;51.182;3.160;2023-04-03T13:37:33;1.50;;;1.30;;
11921;SDS011;6021;51.182;3.160;2023-04-03T13:42:41;1.83;;;1.40;;
11921;SDS011;6021;51.182;3.160;2023-04-03T13:45:28;1.30;;;1.20;;
11921;SDS011;6021;51.182;3.160;2023-04-03T13:48:07;1.60;;;1.40;;
11921;SDS011;6021;51.182;3.160;2023-04-03T13:50:50;2.23;;;1.50;;
11921;SDS011;6021;51.182;3.160;2023-04-03T13:53:30;3.20;;;1.60;;
11921;SDS011;6021;51.182;3.160;2023-04-03T13:58:51;3.70;;;1.50;;
11921;SDS011;6021;51.182;3.160;2023-04-03T14:01:17;1.50;;;1.30;;
11921;SDS011;6021;51.182;3.160;2023-04-03T14:03:58;3.10;;;1.50;;
11921;SDS011;6021;51.182;3.160;2023-04-03T14:06:36;1.40;;;1.30;;
11921;SDS011;6021;51.182;3.160;2023-04-03T14:09:27;1.70;;;1.40;;
11921;SDS011;6021;51.182;3.160;2023-04-03T14:12:17;2.07;;;1.40;;
11921;SDS011;6021;51.182;3.160;2023-04-03T14:14:45;2.53;;;1.77;;
11921;SDS011;6021;51.182;3.160;2023-04-03T14:17:22;2.10;;;1.57;;
11921;SDS011;6021;51.182;3.160;2023-04-03T14:19:56;1.90;;;1.60;;
11921;SDS011;6021;51.182;3.160;2023-04-03T14:22:35;2.00;;;1.50;;
11921;SDS011;6021;51.182;3.160;2023-04-03T14:25:37;1.93;;;1.70;;
11921;SDS011;6021;51.182;3.160;2023-04-03T14:28:18;2.63;;;1.57;;
11921;SDS011;6021;51.182;3.160;2023-04-03T14:30:48;1.80;;;1.70;;
11921;SDS011;6021;51.182;3.160;2023-04-03T14:36:16;1.87;;;1.50;;
11921;SDS011;6021;51.182;3.160;2023-04-03T14:38:56;1.73;;;1.60;;
11921;SDS011;6021;51.182;3.160;2023-04-03T14:41:43;2.10;;;1.40;;
11921;SDS011;6021;51.182;3.160;2023-04-03T14:44:12;1.87;;;1.50;;
11921;SDS011;6021;51.182;3.160;2023-04-03T14:46:46;2.43;;;1.50;;
11921;SDS011;6021;51.182;3.160;2023-04-03T14:49:18;1.83;;;1.57;;
11921;SDS011;6021;51.182;3.160;2023-04-03T14:51:51;2.30;;;1.30;;
11921;SDS011;6021;51.182;3.160;2023-04-03T14:54:33;2.17;;;1.60;;
11921;SDS011;6021;51.182;3.160;2023-04-03T14:57:08;1.83;;;1.43;;
11921;SDS011;6021;51.182;3.160;2023-04-03T14:59:47;3.20;;;1.50;;
11921;SDS011;6021;51.182;3.160;2023-04-03T15:05:15;1.37;;;1.20;;
11921;SDS011;6021;51.182;3.160;2023-04-03T15:07:52;2.10;;;1.60;;
11921;SDS011;6021;51.182;3.160;2023-04-03T15:10:28;1.67;;;1.50;;
11921;SDS011;6021;51.182;3.160;2023-04-03T15:13:08;1.90;;;1.40;;
11921;SDS011;6021;51.182;3.160;2023-04-03T15:15:42;1.70;;;1.60;;
11921;SDS011;6021;51.182;3.160;2023-04-03T15:18:33;1.57;;;1.40;;
11921;SDS011;6021;51.182;3.160;2023-04-03T15:21:03;1.93;;;1.60;;
11921;SDS011;6021;51.182;3.160;2023-04-03T15:23:40;1.60;;;1.40;;
11921;SDS011;6021;51.182;3.160;2023-04-03T15:26:23;2.27;;;1.37;;
11921;SDS011;6021;51.182;3.160;2023-04-03T15:28:58;1.77;;;1.50;;
11921;SDS011;6021;51.182;3.160;2023-04-03T15:31:35;1.90;;;1.60;;
11921;SDS011;6021;51.182;3.160;2023-04-03T15:34:13;1.97;;;1.50;;
11921;SDS011;6021;51.182;3.160;2023-04-03T15:36:47;2.23;;;1.50;;
11921;SDS011;6021;51.182;3.160;2023-04-03T15:39:22;1.37;;;1.27;;
11921;SDS011;6021;51.182;3.160;2023-04-03T15:41:52;1.43;;;1.30;;
11921;SDS011;6021;51.182;3.160;2023-04-03T15:44:30;3.10;;;1.53;;
11921;SDS011;6021;51.182;3.160;2023-04-03T15:47:03;1.63;;;1.50;;
11921;SDS011;6021;51.182;3.160;2023-04-03T15:49:43;1.70;;;1.60;;
11921;SDS011;6021;51.182;3.160;2023-04-03T15:52:25;1.50;;;1.40;;
11921;SDS011;6021;51.182;3.160;2023-04-03T15:54:58;1.97;;;1.40;;
11921;SDS011;6021;51.182;3.160;2023-04-03T15:57:30;2.13;;;1.70;;
11921;SDS011;6021;51.182;3.160;2023-04-03T16:00:02;2.13;;;1.50;;
11921;SDS011;6021;51.182;3.160;2023-04-03T16:02:36;1.50;;;1.40;;
11921;SDS011;6021;51.182;3.160;2023-04-03T16:05:15;1.73;;;1.40;;
11921;SDS011;6021;51.182;3.160;2023-04-03T16:07:55;2.00;;;1.53;;
11921;SDS011;6021;51.182;3.160;2023-04-03T16:10:40;2.13;;;1.77;;
11921;SDS011;6021;51.182;3.160;2023-04-03T16:13:17;1.63;;;1.50;;
11921;SDS011;6021;51.182;3.160;2023-04-03T16:15:47;2.53;;;1.60;;
11921;SDS011;6021;51.182;3.160;2023-04-03T16:18:34;2.57;;;1.60;;
11921;SDS011;6021;51.182;3.160;2023-04-03T16:21:14;1.57;;;1.47;;
11921;SDS011;6021;51.182;3.160;2023-04-03T16:23:47;1.50;;;1.40;;
11921;SDS011;6021;51.182;3.160;2023-04-03T16:26:17;1.60;;;1.40;;
11921;SDS011;6021;51.182;3.160;2023-04-03T16:28:48;2.10;;;1.40;;
11921;SDS011;6021;51.182;3.160;2023-04-03T16:31:16;2.40;;;1.30;;
11921;SDS011;6021;51.182;3.160;2023-04-03T16:33:45;2.83;;;1.60;;
11921;SDS011;6021;51.182;3.160;2023-04-03T16:36:13;2.37;;;1.40;;
11921;SDS011;6021;51.182;3.160;2023-04-03T16:38:42;1.93;;;1.40;;
11921;SDS011;6021;51.182;3.160;2023-04-03T16:41:10;1.60;;;1.50;;
11921;SDS011;6021;51.182;3.160;2023-04-03T16:43:39;2.07;;;1.60;;
11921;SDS011;6021;51.182;3.160;2023-04-03T16:46:07;1.67;;;1.57;;
11921;SDS011;6021;51.182;3.160;2023-04-03T16:48:36;1.83;;;1.53;;
11921;SDS011;6021;51.182;3.160;2023-04-03T16:51:04;1.43;;;1.30;;
11921;SDS011;6021;51.182;3.160;2023-04-03T16:53:32;1.93;;;1.40;;
11921;SDS011;6021;51.182;3.160;2023-04-03T16:56:02;1.40;;;1.23;;
11921;SDS011;6021;51.182;3.160;2023-04-03T16:58:30;2.23;;;1.40;;
11921;SDS011;6021;51.182;3.160;2023-04-03T17:00:59;1.30;;;1.10;;
11921;SDS011;6021;51.182;3.160;2023-04-03T17:03:39;1.90;;;1.13;;
11921;SDS011;6021;51.182;3.160;2023-04-03T17:06:07;1.90;;;1.50;;
11921;SDS011;6021;51.182;3.160;2023-04-03T17:08:39;1.83;;;1.20;;
11921;SDS011;6021;51.182;3.160;2023-04-03T17:11:07;1.43;;;1.13;;
11921;SDS011;6021;51.182;3.160;2023-04-03T17:13:36;1.57;;;1.10;;
11921;SDS011;6021;51.182;3.160;2023-04-03T17:16:05;2.20;;;1.30;;
11921;SDS011;6021;51.182;3.160;2023-04-03T17:18:36;1.90;;;1.43;;
11921;SDS011;6021;51.182;3.160;2023-04-03T17:21:04;2.50;;;1.50;;
11921;SDS011;6021;51.182;3.160;2023-04-03T17:23:33;1.87;;;1.20;;
11921;SDS011;6021;51.182;3.160;2023-04-03T17:26:03;3.33;;;2.30;;
11921;SDS011;6021;51.182;3.160;2023-04-03T17:28:32;1.83;;;1.50;;
11921;SDS011;6021;51.182;3.160;2023-04-03T17:31:01;1.53;;;1.30;;
11921;SDS011;6021;51.182;3.160;2023-04-03T17:33:30;1.87;;;1.40;;
11921;SDS011;6021;51.182;3.160;2023-04-03T17:35:59;2.03;;;1.60;;
11921;SDS011;6021;51.182;3.160;2023-04-03T17:38:30;2.00;;;1.40;;
11921;SDS011;6021;51.182;3.160;2023-04-03T17:41:00;1.83;;;1.50;;
11921;SDS011;6021;51.182;3.160;2023-04-03T17:43:30;3.27;;;1.50;;
11921;SDS011;6021;51.182;3.160;2023-04-03T17:46:00;1.93;;;1.50;;
11921;SDS011;6021;51.182;3.160;2023-04-03T17:48:32;1.63;;;1.40;;
11921;SDS011;6021;51.182;3.160;2023-04-03T17:51:05;2.53;;;1.40;;
11921;SDS011;6021;51.182;3.160;2023-04-03T17:53:45;2.07;;;1.63;;
11921;SDS011;6021;51.182;3.160;2023-04-03T17:58:46;2.20;;;1.50;;
11921;SDS011;6021;51.182;3.160;2023-04-03T18:01:18;1.70;;;1.30;;
11921;SDS011;6021;51.182;3.160;2023-04-03T18:03:52;1.80;;;1.60;;
11921;SDS011;6021;51.182;3.160;2023-04-03T18:06:24;1.80;;;1.50;;
11921;SDS011;6021;51.182;3.160;2023-04-03T18:08:54;3.03;;;1.70;;
11921;SDS011;6021;51.182;3.160;2023-04-03T18:11:25;2.83;;;1.70;;
11921;SDS011;6021;51.182;3.160;2023-04-03T18:13:56;3.13;;;1.90;;
11921;SDS011;6021;51.182;3.160;2023-04-03T18:16:27;2.37;;;1.73;;
11921;SDS011;6021;51.182;3.160;2023-04-03T18:18:55;2.10;;;1.90;;